createdAt,value
2023-04-30T00:01:48.775Z,100.00
2023-04-30T00:04:19.011Z,100.00
2023-04-30T00:09:30.732Z,100.00
2023-04-30T00:12:00.599Z,100.00
2023-04-30T00:14:35.835Z,100.00
2023-04-30T00:17:12.644Z,100.00
2023-04-30T00:19:43.438Z,100.00
2023-04-30T00:25:10.063Z,100.00
2023-04-30T00:27:41.105Z,100.00
2023-04-30T00:30:22.282Z,100.00
2023-04-30T00:32:53.152Z,100.00
2023-04-30T00:35:26.940Z,100.00
2023-04-30T00:38:04.099Z,100.00
2023-04-30T00:40:55.493Z,100.00
2023-04-30T00:43:23.798Z,100.00
2023-04-30T00:45:55.692Z,100.00
2023-04-30T00:48:28.905Z,100.00
2023-04-30T00:51:00.719Z,100.00
2023-04-30T00:53:29.750Z,100.00
2023-04-30T00:55:58.331Z,100.00
2023-04-30T00:58:38.402Z,100.00
2023-04-30T01:01:08.907Z,100.00
2023-04-30T01:03:40.133Z,100.00
2023-04-30T01:06:10.652Z,100.00
2023-04-30T01:08:48.654Z,100.00
2023-04-30T01:12:12.069Z,100.00
2023-04-30T01:15:23.170Z,100.00
2023-04-30T01:18:48.375Z,100.00
2023-04-30T01:21:26.238Z,100.00
2023-04-30T01:24:00.444Z,100.00
2023-04-30T01:26:58.450Z,100.00
2023-04-30T01:29:28.223Z,100.00
2023-04-30T01:32:25.686Z,100.00
2023-04-30T01:35:12.600Z,100.00
2023-04-30T01:38:05.270Z,100.00
2023-04-30T01:41:27.746Z,100.00
2023-04-30T01:44:20.556Z,100.00
2023-04-30T01:47:16.688Z,100.00
2023-04-30T01:50:30.741Z,100.00
2023-04-30T01:53:03.324Z,100.00
2023-04-30T01:56:07.857Z,100.00
2023-04-30T01:58:48.708Z,100.00
2023-04-30T02:01:39.084Z,100.00
2023-04-30T02:06:54.531Z,100.00
2023-04-30T02:09:32.268Z,100.00
2023-04-30T02:12:07.817Z,100.00
2023-04-30T02:14:43.857Z,100.00
2023-04-30T02:17:15.231Z,100.00
2023-04-30T02:22:27.461Z,100.00
2023-04-30T02:24:59.971Z,100.00
2023-04-30T02:27:28.270Z,100.00
2023-04-30T02:30:06.271Z,100.00
2023-04-30T02:32:40.328Z,100.00
2023-04-30T02:35:19.713Z,100.00
2023-04-30T02:37:49.830Z,100.00
2023-04-30T02:40:20.857Z,100.00
2023-04-30T02:42:53.696Z,100.00
2023-04-30T02:45:24.968Z,100.00
2023-04-30T02:48:03.135Z,100.00
2023-04-30T02:50:30.954Z,100.00
2023-04-30T02:53:00.401Z,100.00
2023-04-30T02:55:30.815Z,100.00
2023-04-30T02:58:01.181Z,100.00
2023-04-30T03:03:17.199Z,100.00
2023-04-30T03:05:48.142Z,100.00
2023-04-30T03:08:18.757Z,100.00
2023-04-30T03:10:55.214Z,100.00
2023-04-30T03:13:34.445Z,100.00
2023-04-30T03:16:12.972Z,100.00
2023-04-30T03:18:40.925Z,100.00
2023-04-30T03:21:11.656Z,100.00
2023-04-30T03:23:46.697Z,100.00
2023-04-30T03:26:26.495Z,100.00
2023-04-30T03:29:07.407Z,100.00
2023-04-30T03:31:37.833Z,100.00
2023-04-30T03:34:11.490Z,100.00
2023-04-30T03:36:43.597Z,100.00
2023-04-30T03:39:17.154Z,100.00
2023-04-30T03:42:02.425Z,100.00
2023-04-30T03:44:30.252Z,100.00
2023-04-30T03:47:03.150Z,100.00
2023-04-30T03:49:31.116Z,100.00
2023-04-30T03:52:17.413Z,100.00
2023-04-30T03:54:51.186Z,100.00
2023-04-30T04:00:14.221Z,100.00
2023-04-30T04:02:55.753Z,100.00
2023-04-30T04:05:25.949Z,100.00
2023-04-30T04:07:55.081Z,100.00
2023-04-30T04:10:23.002Z,100.00
2023-04-30T04:12:53.373Z,100.00
2023-04-30T04:15:24.747Z,100.00
2023-04-30T04:17:57.725Z,100.00
2023-04-30T04:20:27.430Z,100.00
2023-04-30T04:23:00.819Z,100.00
2023-04-30T04:25:30.916Z,100.00
2023-04-30T04:28:12.754Z,100.00
2023-04-30T04:30:48.318Z,100.00
2023-04-30T04:33:17.556Z,100.00
2023-04-30T04:35:54.726Z,100.00
2023-04-30T04:38:26.713Z,100.00
2023-04-30T04:41:00.317Z,100.00
2023-04-30T04:43:31.370Z,100.00
2023-04-30T04:46:14.435Z,100.00
2023-04-30T04:48:49.603Z,100.00
2023-04-30T04:51:19.628Z,100.00
2023-04-30T04:53:53.426Z,100.00
2023-04-30T04:59:08.648Z,100.00
2023-04-30T05:04:35.774Z,100.00
2023-04-30T05:07:08.993Z,100.00
2023-04-30T05:09:47.069Z,100.00
2023-04-30T05:12:16.955Z,100.00
2023-04-30T05:14:49.700Z,100.00
2023-04-30T05:17:26.700Z,100.00
2023-04-30T05:20:00.590Z,100.00
2023-04-30T05:22:32.070Z,100.00
2023-04-30T05:25:14.986Z,100.00
2023-04-30T05:27:48.299Z,100.00
2023-04-30T05:30:27.893Z,100.00
2023-04-30T05:32:57.875Z,100.00
2023-04-30T05:35:30.471Z,100.00
2023-04-30T05:38:09.008Z,100.00
2023-04-30T05:43:24.037Z,100.00
2023-04-30T05:45:56.842Z,100.00
2023-04-30T05:48:27.817Z,100.00
2023-04-30T05:50:56.961Z,100.00
2023-04-30T05:53:27.996Z,100.00
2023-04-30T05:55:58.107Z,100.00
2023-04-30T05:58:29.166Z,100.00
2023-04-30T06:01:01.643Z,100.00
2023-04-30T06:03:32.773Z,100.00
2023-04-30T06:06:16.538Z,100.00
2023-04-30T06:08:47.971Z,100.00
2023-04-30T06:11:20.383Z,100.00
2023-04-30T06:13:53.006Z,100.00
2023-04-30T06:16:24.138Z,100.00
2023-04-30T06:18:54.293Z,100.00
2023-04-30T06:21:28.513Z,100.00
2023-04-30T06:23:56.953Z,100.00
2023-04-30T06:26:24.927Z,100.00
2023-04-30T06:28:57.557Z,100.00
2023-04-30T06:31:27.455Z,100.00
2023-04-30T06:33:59.562Z,100.00
2023-04-30T06:36:29.877Z,100.00
2023-04-30T06:39:10.527Z,100.00
2023-04-30T06:41:40.295Z,100.00
2023-04-30T06:44:13.630Z,100.00
2023-04-30T06:46:44.085Z,100.00
2023-04-30T06:49:21.894Z,100.00
2023-04-30T06:51:56.501Z,100.00
2023-04-30T06:54:30.142Z,100.00
2023-04-30T06:57:03.095Z,100.00
2023-04-30T06:59:44.897Z,100.00
2023-04-30T07:02:14.991Z,100.00
2023-04-30T07:04:45.396Z,100.00
2023-04-30T07:07:15.712Z,100.00
2023-04-30T07:09:51.524Z,100.00
2023-04-30T07:12:24.875Z,100.00
2023-04-30T07:14:55.591Z,100.00
2023-04-30T07:17:41.124Z,100.00
2023-04-30T07:22:56.164Z,100.00
2023-04-30T07:25:26.147Z,100.00
2023-04-30T07:27:58.048Z,100.00
2023-04-30T07:30:28.529Z,100.00
2023-04-30T07:33:04.554Z,100.00
2023-04-30T07:35:35.712Z,100.00
2023-04-30T07:38:13.372Z,100.00
2023-04-30T07:40:44.925Z,100.00
2023-04-30T07:43:18.959Z,100.00
2023-04-30T07:45:53.954Z,100.00
2023-04-30T07:51:07.097Z,100.00
2023-04-30T07:53:48.629Z,100.00
2023-04-30T07:56:19.753Z,100.00
2023-04-30T07:59:01.035Z,100.00
2023-04-30T08:01:45.100Z,100.00
2023-04-30T08:04:12.917Z,100.00
2023-04-30T08:06:50.007Z,100.00
2023-04-30T08:09:21.418Z,100.00
2023-04-30T08:11:56.194Z,100.00
2023-04-30T08:14:27.508Z,100.00
2023-04-30T08:16:55.203Z,100.00
2023-04-30T08:19:28.049Z,100.00
2023-04-30T08:21:58.512Z,100.00
2023-04-30T08:24:30.225Z,100.00
2023-04-30T08:27:00.103Z,100.00
2023-04-30T08:29:28.502Z,100.00
2023-04-30T08:32:05.831Z,100.00
2023-04-30T08:34:38.753Z,100.00
2023-04-30T08:37:20.731Z,100.00
2023-04-30T08:39:54.178Z,100.00
2023-04-30T08:42:48.258Z,100.00
2023-04-30T08:45:19.770Z,100.00
2023-04-30T08:47:51.915Z,100.00
2023-04-30T08:50:22.442Z,100.00
2023-04-30T08:52:56.505Z,100.00
2023-04-30T08:55:28.417Z,100.00
2023-04-30T08:57:59.590Z,100.00
2023-04-30T09:00:38.445Z,100.00
2023-04-30T09:03:09.019Z,100.00
2023-04-30T09:05:44.537Z,100.00
2023-04-30T09:08:21.741Z,100.00
2023-04-30T09:13:49.025Z,100.00
2023-04-30T09:16:17.331Z,100.00
2023-04-30T09:18:47.829Z,100.00
2023-04-30T09:21:18.482Z,100.00
2023-04-30T09:24:07.509Z,100.00
2023-04-30T09:26:45.730Z,100.00
2023-04-30T09:29:20.199Z,100.00
2023-04-30T09:32:06.171Z,100.00
2023-04-30T09:34:48.371Z,100.00
2023-04-30T09:37:20.702Z,100.00
2023-04-30T09:40:00.872Z,100.00
2023-04-30T09:42:31.187Z,100.00
2023-04-30T09:47:45.738Z,100.00
2023-04-30T09:50:18.113Z,100.00
2023-04-30T09:53:08.739Z,100.00
2023-04-30T09:55:47.521Z,100.00
2023-04-30T09:58:21.007Z,100.00
2023-04-30T10:01:10.835Z,100.00
2023-04-30T10:03:44.465Z,100.00
2023-04-30T10:06:25.072Z,100.00
2023-04-30T10:09:00.916Z,100.00
2023-04-30T10:11:36.302Z,100.00
2023-04-30T10:14:17.990Z,100.00
2023-04-30T10:17:00.111Z,100.00
2023-04-30T10:19:35.550Z,100.00
2023-04-30T10:22:07.312Z,100.00
2023-04-30T10:24:41.112Z,100.00
2023-04-30T10:27:19.469Z,100.00
2023-04-30T10:29:49.838Z,100.00
2023-04-30T10:35:27.905Z,100.00
2023-04-30T10:38:27.672Z,100.00
2023-04-30T10:41:10.218Z,100.00
2023-04-30T10:43:41.102Z,100.00
2023-04-30T10:46:10.192Z,100.00
2023-04-30T10:48:40.677Z,100.00
2023-04-30T10:51:10.386Z,100.00
2023-04-30T10:56:38.927Z,100.00
2023-04-30T10:59:19.818Z,100.00
2023-04-30T11:02:04.647Z,100.00
2023-04-30T11:07:20.806Z,100.00
2023-04-30T11:09:53.220Z,100.00
2023-04-30T11:12:41.997Z,100.00
2023-04-30T11:15:26.694Z,100.00
2023-04-30T11:18:02.662Z,100.00
2023-04-30T11:20:32.904Z,100.00
2023-04-30T11:23:25.296Z,100.00
2023-04-30T11:26:05.974Z,100.00
2023-04-30T11:28:50.994Z,100.00
2023-04-30T11:31:22.743Z,100.00
2023-04-30T11:33:56.568Z,100.00
2023-04-30T11:36:33.032Z,100.00
2023-04-30T11:39:19.897Z,100.00
2023-04-30T11:41:57.207Z,100.00
2023-04-30T11:44:37.808Z,100.00
2023-04-30T11:47:11.939Z,100.00
2023-04-30T11:49:47.153Z,100.00
2023-04-30T11:52:17.574Z,100.00
2023-04-30T11:54:45.597Z,100.00
2023-04-30T11:57:16.846Z,100.00
2023-04-30T11:59:50.464Z,100.00
2023-04-30T12:02:24.898Z,100.00
2023-04-30T12:04:54.039Z,100.00
2023-04-30T12:07:30.863Z,100.00
2023-04-30T12:10:11.254Z,100.00
2023-04-30T12:12:41.844Z,100.00
2023-04-30T12:15:27.355Z,100.00
2023-04-30T12:18:15.829Z,100.00
2023-04-30T12:20:48.303Z,100.00
2023-04-30T12:23:18.771Z,100.00
2023-04-30T12:25:50.308Z,100.00
2023-04-30T12:28:27.995Z,100.00
2023-04-30T12:30:59.699Z,100.00
2023-04-30T12:33:37.083Z,100.00
2023-04-30T12:36:35.620Z,100.00
2023-04-30T12:39:13.383Z,100.00
2023-04-30T12:41:51.521Z,100.00
2023-04-30T12:44:26.992Z,100.00
2023-04-30T12:47:00.867Z,100.00
2023-04-30T12:49:44.165Z,100.00
2023-04-30T12:52:15.983Z,100.00
2023-04-30T12:55:11.350Z,100.00
2023-04-30T12:57:41.096Z,100.00
2023-04-30T13:00:19.162Z,100.00
2023-04-30T13:02:52.491Z,100.00
2023-04-30T13:05:27.768Z,100.00
2023-04-30T13:08:13.515Z,100.00
2023-04-30T13:10:46.511Z,100.00
2023-04-30T13:16:09.316Z,100.00
2023-04-30T13:18:47.240Z,100.00
2023-04-30T13:21:21.188Z,100.00
2023-04-30T13:23:55.301Z,100.00
2023-04-30T13:29:16.431Z,100.00
2023-04-30T13:32:05.477Z,100.00
2023-04-30T13:34:35.637Z,100.00
2023-04-30T13:39:53.649Z,59.70
2023-04-30T13:42:24.997Z,51.29
2023-04-30T13:44:58.121Z,41.68
2023-04-30T13:47:29.225Z,42.50
2023-04-30T13:50:05.312Z,42.07
2023-04-30T13:52:47.832Z,43.70
2023-04-30T13:58:11.243Z,42.91
2023-04-30T14:00:41.907Z,42.81
2023-04-30T14:03:24.595Z,40.44
2023-04-30T14:05:56.111Z,37.81
2023-04-30T14:08:26.740Z,39.74
2023-04-30T14:10:59.344Z,41.24
2023-04-30T14:13:28.448Z,45.17
2023-04-30T14:15:58.320Z,40.21
2023-04-30T14:18:28.943Z,43.96
2023-04-30T14:20:58.133Z,37.50
2023-04-30T14:23:35.116Z,35.62
2023-04-30T14:26:13.688Z,38.13
2023-04-30T14:28:49.752Z,39.21
2023-04-30T14:31:30.213Z,38.91
2023-04-30T14:34:03.889Z,39.52
2023-04-30T14:36:32.016Z,35.84
2023-04-30T14:39:15.937Z,36.44
2023-04-30T14:41:46.416Z,35.60
2023-04-30T14:44:17.925Z,36.20
2023-04-30T14:46:48.028Z,34.72
2023-04-30T14:52:01.820Z,42.89
2023-04-30T14:54:32.250Z,43.65
2023-04-30T14:57:04.547Z,47.59
2023-04-30T14:59:33.690Z,55.72
2023-04-30T15:02:03.467Z,58.47
2023-04-30T15:04:47.227Z,67.83
2023-04-30T15:07:16.315Z,73.67
2023-04-30T15:09:55.269Z,84.40
2023-04-30T15:12:30.408Z,95.89
2023-04-30T15:14:58.180Z,94.37
2023-04-30T15:17:29.837Z,100.00
2023-04-30T15:20:09.692Z,84.55
2023-04-30T15:22:42.211Z,87.98
2023-04-30T15:25:14.173Z,89.35
2023-04-30T15:27:42.288Z,80.02
2023-04-30T15:30:22.570Z,76.71
2023-04-30T15:32:52.865Z,75.58
2023-04-30T15:35:23.713Z,81.23
2023-04-30T15:37:55.770Z,75.89
2023-04-30T15:40:24.806Z,75.72
2023-04-30T15:42:56.249Z,72.17
2023-04-30T15:45:27.935Z,65.18
2023-04-30T15:48:03.999Z,58.54
2023-04-30T15:50:37.854Z,52.81
2023-04-30T15:53:15.351Z,50.09
2023-04-30T15:55:52.938Z,52.93
2023-04-30T15:58:31.399Z,60.91
2023-04-30T16:01:01.523Z,58.13
2023-04-30T16:03:29.720Z,67.29
2023-04-30T16:06:01.769Z,82.89
2023-04-30T16:08:32.478Z,100.00
2023-04-30T16:11:01.733Z,100.00
2023-04-30T16:13:31.813Z,100.00
2023-04-30T16:16:07.315Z,100.00
2023-04-30T16:18:46.380Z,100.00
2023-04-30T16:21:22.320Z,100.00
2023-04-30T16:23:56.992Z,100.00
2023-04-30T16:26:25.712Z,100.00
2023-04-30T16:28:57.183Z,100.00
2023-04-30T16:31:33.828Z,100.00
2023-04-30T16:34:15.658Z,100.00
2023-04-30T16:36:51.755Z,100.00
2023-04-30T16:39:19.550Z,100.00
2023-04-30T16:41:50.877Z,100.00
2023-04-30T16:44:24.127Z,100.00
2023-04-30T16:46:57.246Z,100.00
2023-04-30T16:49:27.503Z,100.00
2023-04-30T16:51:58.347Z,100.00
2023-04-30T16:54:28.048Z,100.00
2023-04-30T16:56:58.608Z,100.00
2023-04-30T17:02:10.900Z,100.00
2023-04-30T17:04:42.277Z,100.00
2023-04-30T17:07:16.123Z,100.00
2023-04-30T17:09:44.521Z,100.00
2023-04-30T17:12:15.119Z,100.00
2023-04-30T17:14:47.883Z,100.00
2023-04-30T17:17:18.790Z,100.00
2023-04-30T17:22:31.587Z,100.00
2023-04-30T17:25:19.165Z,100.00
2023-04-30T17:27:57.004Z,100.00
2023-04-30T17:30:31.077Z,100.00
2023-04-30T17:33:02.277Z,100.00
2023-04-30T17:35:30.953Z,100.00
2023-04-30T17:38:01.679Z,100.00
2023-04-30T17:40:43.896Z,100.00
2023-04-30T17:43:11.792Z,100.00
2023-04-30T17:45:46.357Z,100.00
2023-04-30T17:48:24.044Z,100.00
2023-04-30T17:50:56.684Z,100.00
2023-04-30T17:53:28.654Z,100.00
2023-04-30T17:56:12.312Z,100.00
2023-04-30T17:58:42.694Z,100.00
2023-04-30T18:01:16.276Z,100.00
2023-04-30T18:03:44.418Z,100.00
2023-04-30T18:09:01.504Z,100.00
2023-04-30T18:11:30.165Z,100.00
2023-04-30T18:14:00.370Z,100.00
2023-04-30T18:16:30.903Z,100.00
2023-04-30T18:19:10.230Z,100.00
2023-04-30T18:21:40.411Z,100.00
2023-04-30T18:24:16.301Z,100.00
2023-04-30T18:26:46.772Z,100.00
2023-04-30T18:29:17.905Z,100.00
2023-04-30T18:31:55.803Z,100.00
2023-04-30T18:34:28.418Z,100.00
2023-04-30T18:36:58.988Z,100.00
2023-04-30T18:39:31.988Z,100.00
2023-04-30T18:42:00.235Z,100.00
2023-04-30T18:44:40.189Z,100.00
2023-04-30T18:47:11.100Z,100.00
2023-04-30T18:49:44.019Z,100.00
2023-04-30T18:52:13.063Z,100.00
2023-04-30T18:54:47.362Z,100.00
2023-04-30T18:57:20.721Z,100.00
2023-04-30T19:00:05.449Z,100.00
2023-04-30T19:02:45.207Z,100.00
2023-04-30T19:05:22.714Z,100.00
2023-04-30T19:07:52.803Z,100.00
2023-04-30T19:10:26.717Z,100.00
2023-04-30T19:12:57.068Z,100.00
2023-04-30T19:15:31.964Z,100.00
2023-04-30T19:18:04.066Z,100.00
2023-04-30T19:20:34.969Z,100.00
2023-04-30T19:23:11.773Z,100.00
2023-04-30T19:25:42.438Z,100.00
2023-04-30T19:28:18.117Z,100.00
2023-04-30T19:30:46.186Z,100.00
2023-04-30T19:33:17.619Z,100.00
2023-04-30T19:35:49.532Z,100.00
2023-04-30T19:38:26.992Z,100.00
2023-04-30T19:40:58.026Z,100.00
2023-04-30T19:43:33.666Z,100.00
2023-04-30T19:46:12.128Z,100.00
2023-04-30T19:48:49.714Z,100.00
2023-04-30T19:51:30.754Z,100.00
2023-04-30T19:53:59.541Z,100.00
2023-04-30T19:56:29.616Z,100.00
2023-04-30T19:59:13.502Z,100.00
2023-04-30T20:01:56.121Z,100.00
2023-04-30T20:04:36.914Z,100.00
2023-04-30T20:09:53.830Z,100.00
2023-04-30T20:12:25.021Z,100.00
2023-04-30T20:14:53.740Z,100.00
2023-04-30T20:17:24.975Z,100.00
2023-04-30T20:19:56.894Z,100.00
2023-04-30T20:22:27.040Z,100.00
2023-04-30T20:24:59.374Z,100.00
2023-04-30T20:30:12.916Z,100.00
2023-04-30T20:32:43.254Z,100.00
2023-04-30T20:35:17.257Z,100.00
2023-04-30T20:37:47.290Z,100.00
2023-04-30T20:40:21.604Z,100.00
2023-04-30T20:42:52.079Z,100.00
2023-04-30T20:45:23.242Z,100.00
2023-04-30T20:48:00.674Z,100.00
2023-04-30T20:50:30.376Z,100.00
2023-04-30T20:52:59.394Z,100.00
2023-04-30T20:55:33.062Z,100.00
2023-04-30T20:58:01.455Z,100.00
2023-04-30T21:03:11.538Z,100.00
2023-04-30T21:05:43.346Z,100.00
2023-04-30T21:08:14.901Z,100.00
2023-04-30T21:10:45.679Z,100.00
2023-04-30T21:13:19.342Z,100.00
2023-04-30T21:15:53.265Z,100.00
2023-04-30T21:18:26.489Z,100.00
2023-04-30T21:20:56.855Z,100.00
2023-04-30T21:23:26.891Z,100.00
2023-04-30T21:26:01.541Z,100.00
2023-04-30T21:28:33.752Z,100.00
2023-04-30T21:31:12.924Z,100.00
2023-04-30T21:33:50.506Z,100.00
2023-04-30T21:36:22.090Z,100.00
2023-04-30T21:38:53.656Z,100.00
2023-04-30T21:41:24.717Z,100.00
2023-04-30T21:44:11.228Z,100.00
2023-04-30T21:46:44.462Z,100.00
2023-04-30T21:49:22.205Z,100.00
2023-04-30T21:54:36.726Z,100.00
2023-04-30T21:57:07.241Z,100.00
2023-04-30T21:59:48.558Z,100.00
2023-04-30T22:02:32.587Z,100.00
2023-04-30T22:05:12.026Z,100.00
2023-04-30T22:07:44.327Z,100.00
2023-04-30T22:10:16.645Z,100.00
2023-04-30T22:12:47.460Z,100.00
2023-04-30T22:15:47.627Z,100.00
2023-04-30T22:18:31.953Z,100.00
2023-04-30T22:21:02.639Z,100.00
2023-04-30T22:23:32.847Z,100.00
2023-04-30T22:26:01.388Z,100.00
2023-04-30T22:28:29.712Z,100.00
2023-04-30T22:31:03.290Z,100.00
2023-04-30T22:33:47.395Z,100.00
2023-04-30T22:36:21.561Z,100.00
2023-04-30T22:38:59.546Z,100.00
2023-04-30T22:41:29.624Z,100.00
2023-04-30T22:44:02.253Z,100.00
2023-04-30T22:46:36.917Z,100.00
2023-04-30T22:49:12.453Z,100.00
2023-04-30T22:51:51.456Z,100.00
2023-04-30T22:54:22.287Z,100.00
2023-04-30T22:56:54.128Z,100.00
2023-04-30T22:59:24.398Z,100.00
2023-04-30T23:02:02.150Z,100.00
2023-04-30T23:07:32.731Z,100.00
2023-04-30T23:10:12.521Z,100.00
2023-04-30T23:12:42.593Z,100.00
2023-04-30T23:15:13.898Z,100.00
2023-04-30T23:17:44.615Z,100.00
2023-04-30T23:20:15.053Z,100.00
2023-04-30T23:22:45.594Z,100.00
2023-04-30T23:25:17.315Z,100.00
2023-04-30T23:27:48.380Z,100.00
2023-04-30T23:30:18.010Z,100.00
2023-04-30T23:32:47.894Z,100.00
2023-04-30T23:35:27.073Z,100.00
2023-04-30T23:37:57.308Z,100.00
2023-04-30T23:40:28.393Z,100.00
2023-04-30T23:42:59.734Z,100.00
2023-04-30T23:45:32.304Z,100.00
2023-04-30T23:48:00.759Z,100.00
2023-04-30T23:50:30.932Z,100.00
2023-04-30T23:53:02.457Z,100.00
2023-04-30T23:55:42.501Z,100.00
2023-04-30T23:58:16.290Z,100.00
